sensor_id;sensor_type;location;lat;lon;timestamp;pressure;altitude;pressure_sealevel;temperature;humidity
6150;BME280;3106;42.670;23.318;2024-02-26T00:00:16;93992.81;;;9.24;100.00
6150;BME280;3106;42.670;23.318;2024-02-26T00:02:44;94000.44;;;9.25;100.00
6150;BME280;3106;42.670;23.318;2024-02-26T00:05:11;93997.63;;;9.34;100.00
6150;BME280;3106;42.670;23.318;2024-02-26T00:07:39;93993.56;;;9.40;100.00
6150;BME280;3106;42.670;23.318;2024-02-26T00:10:07;93988.34;;;9.43;100.00
6150;BME280;3106;42.670;23.318;2024-02-26T00:12:34;93987.47;;;9.39;100.00
6150;BME280;3106;42.670;23.318;2024-02-26T00:15:04;93974.72;;;9.33;100.00
6150;BME280;3106;42.670;23.318;2024-02-26T00:17:31;93983.94;;;9.35;100.00
6150;BME280;3106;42.670;23.318;2024-02-26T00:20:02;93987.53;;;9.43;100.00
6150;BME280;3106;42.670;23.318;2024-02-26T00:22:34;93986.09;;;9.45;100.00
6150;BME280;3106;42.670;23.318;2024-02-26T00:25:01;93959.31;;;9.26;100.00
6150;BME280;3106;42.670;23.318;2024-02-26T00:27:28;93977.28;;;9.45;100.00
6150;BME280;3106;42.670;23.318;2024-02-26T00:29:55;93978.00;;;9.42;100.00
6150;BME280;3106;42.670;23.318;2024-02-26T00:32:25;93981.72;;;9.37;100.00
6150;BME280;3106;42.670;23.318;2024-02-26T00:34:51;93981.03;;;9.40;100.00
6150;BME280;3106;42.670;23.318;2024-02-26T00:37:20;93970.41;;;9.44;100.00
6150;BME280;3106;42.670;23.318;2024-02-26T00:39:47;93967.50;;;9.49;100.00
6150;BME280;3106;42.670;23.318;2024-02-26T00:42:14;93964.56;;;9.54;100.00
6150;BME280;3106;42.670;23.318;2024-02-26T00:44:41;93958.88;;;9.55;100.00
6150;BME280;3106;42.670;23.318;2024-02-26T00:47:10;93956.22;;;9.55;100.00
6150;BME280;3106;42.670;23.318;2024-02-26T00:49:38;93959.31;;;9.57;100.00
6150;BME280;3106;42.670;23.318;2024-02-26T00:52:06;93925.75;;;9.41;100.00
6150;BME280;3106;42.670;23.318;2024-02-26T00:54:34;93945.91;;;9.54;100.00
6150;BME280;3106;42.670;23.318;2024-02-26T00:57:01;93947.94;;;9.60;100.00
6150;BME280;3106;42.670;23.318;2024-02-26T00:59:29;93957.16;;;9.63;100.00
6150;BME280;3106;42.670;23.318;2024-02-26T01:01:57;93952.69;;;9.51;100.00
6150;BME280;3106;42.670;23.318;2024-02-26T01:04:28;93944.63;;;9.32;100.00
6150;BME280;3106;42.670;23.318;2024-02-26T01:06:55;93940.91;;;9.37;100.00
6150;BME280;3106;42.670;23.318;2024-02-26T01:09:22;93942.88;;;9.40;100.00
6150;BME280;3106;42.670;23.318;2024-02-26T01:11:50;93928.84;;;9.43;100.00
6150;BME280;3106;42.670;23.318;2024-02-26T01:14:17;93940.56;;;9.38;100.00
6150;BME280;3106;42.670;23.318;2024-02-26T01:16:43;93937.22;;;9.26;100.00
6150;BME280;3106;42.670;23.318;2024-02-26T01:19:11;93916.63;;;9.26;100.00
6150;BME280;3106;42.670;23.318;2024-02-26T01:21:37;93935.50;;;9.49;100.00
6150;BME280;3106;42.670;23.318;2024-02-26T01:24:07;93934.78;;;9.52;100.00
6150;BME280;3106;42.670;23.318;2024-02-26T01:26:33;93949.06;;;9.59;100.00
6150;BME280;3106;42.670;23.318;2024-02-26T01:29:16;93936.50;;;9.60;100.00
6150;BME280;3106;42.670;23.318;2024-02-26T01:31:50;93933.06;;;9.44;100.00
6150;BME280;3106;42.670;23.318;2024-02-26T01:34:17;93936.63;;;9.32;100.00
6150;BME280;3106;42.670;23.318;2024-02-26T01:36:44;93936.78;;;9.24;100.00
6150;BME280;3106;42.670;23.318;2024-02-26T01:39:11;93933.69;;;9.22;100.00
6150;BME280;3106;42.670;23.318;2024-02-26T01:41:38;93910.28;;;9.15;100.00
6150;BME280;3106;42.670;23.318;2024-02-26T01:44:05;93931.88;;;9.41;100.00
6150;BME280;3106;42.670;23.318;2024-02-26T01:46:35;93915.03;;;9.37;100.00
6150;BME280;3106;42.670;23.318;2024-02-26T01:49:02;93917.84;;;9.44;100.00
6150;BME280;3106;42.670;23.318;2024-02-26T01:51:31;93908.41;;;9.31;100.00
6150;BME280;3106;42.670;23.318;2024-02-26T01:53:59;93921.06;;;9.34;100.00
6150;BME280;3106;42.670;23.318;2024-02-26T01:56:26;93907.94;;;9.29;100.00
6150;BME280;3106;42.670;23.318;2024-02-26T01:58:57;93923.88;;;9.41;100.00
6150;BME280;3106;42.670;23.318;2024-02-26T02:01:25;93929.22;;;9.41;100.00
6150;BME280;3106;42.670;23.318;2024-02-26T02:03:56;93925.25;;;9.51;100.00
6150;BME280;3106;42.670;23.318;2024-02-26T02:06:24;93924.88;;;9.52;100.00
6150;BME280;3106;42.670;23.318;2024-02-26T02:08:54;93862.97;;;9.12;100.00
6150;BME280;3106;42.670;23.318;2024-02-26T02:11:21;93921.25;;;9.60;100.00
6150;BME280;3106;42.670;23.318;2024-02-26T02:13:47;93922.63;;;9.54;100.00
6150;BME280;3106;42.670;23.318;2024-02-26T02:16:14;93913.78;;;9.50;100.00
6150;BME280;3106;42.670;23.318;2024-02-26T02:18:41;93893.41;;;9.42;100.00
6150;BME280;3106;42.670;23.318;2024-02-26T02:21:09;93927.50;;;9.49;100.00
6150;BME280;3106;42.670;23.318;2024-02-26T02:23:36;93926.59;;;9.60;100.00
6150;BME280;3106;42.670;23.318;2024-02-26T02:26:05;93929.94;;;9.57;100.00
6150;BME280;3106;42.670;23.318;2024-02-26T02:28:32;93925.03;;;9.59;100.00
6150;BME280;3106;42.670;23.318;2024-02-26T02:30:59;93887.91;;;9.35;100.00
6150;BME280;3106;42.670;23.318;2024-02-26T02:33:27;93885.16;;;9.32;100.00
6150;BME280;3106;42.670;23.318;2024-02-26T02:35:53;93905.19;;;9.41;100.00
6150;BME280;3106;42.670;23.318;2024-02-26T02:38:22;93905.97;;;9.42;100.00
6150;BME280;3106;42.670;23.318;2024-02-26T02:40:51;93899.88;;;9.41;100.00
6150;BME280;3106;42.670;23.318;2024-02-26T02:43:18;93901.56;;;9.49;100.00
6150;BME280;3106;42.670;23.318;2024-02-26T02:45:44;93920.97;;;9.65;100.00
6150;BME280;3106;42.670;23.318;2024-02-26T02:48:12;93924.63;;;9.57;100.00
6150;BME280;3106;42.670;23.318;2024-02-26T02:50:40;93917.41;;;9.58;100.00
6150;BME280;3106;42.670;23.318;2024-02-26T02:53:07;93928.13;;;9.61;100.00
6150;BME280;3106;42.670;23.318;2024-02-26T02:55:36;93913.03;;;9.50;100.00
6150;BME280;3106;42.670;23.318;2024-02-26T02:58:03;93926.69;;;9.64;100.00
6150;BME280;3106;42.670;23.318;2024-02-26T03:00:30;93940.59;;;9.73;100.00
6150;BME280;3106;42.670;23.318;2024-02-26T03:02:59;93902.69;;;9.48;100.00
6150;BME280;3106;42.670;23.318;2024-02-26T03:05:26;93923.22;;;9.63;100.00
6150;BME280;3106;42.670;23.318;2024-02-26T03:07:53;93932.44;;;9.66;100.00
6150;BME280;3106;42.670;23.318;2024-02-26T03:10:20;93911.03;;;9.47;100.00
6150;BME280;3106;42.670;23.318;2024-02-26T03:12:49;93938.47;;;9.63;100.00
6150;BME280;3106;42.670;23.318;2024-02-26T03:15:16;93935.91;;;9.66;100.00
6150;BME280;3106;42.670;23.318;2024-02-26T03:17:43;93932.25;;;9.74;100.00
6150;BME280;3106;42.670;23.318;2024-02-26T03:20:10;93938.09;;;9.80;100.00
6150;BME280;3106;42.670;23.318;2024-02-26T03:22:38;93910.38;;;9.69;100.00
6150;BME280;3106;42.670;23.318;2024-02-26T03:25:05;93906.59;;;9.70;100.00
6150;BME280;3106;42.670;23.318;2024-02-26T03:27:34;93923.44;;;9.89;100.00
6150;BME280;3106;42.670;23.318;2024-02-26T03:30:03;93911.81;;;9.82;100.00
6150;BME280;3106;42.670;23.318;2024-02-26T03:32:31;93895.66;;;9.75;100.00
6150;BME280;3106;42.670;23.318;2024-02-26T03:34:58;93910.34;;;9.84;100.00
6150;BME280;3106;42.670;23.318;2024-02-26T03:37:26;93906.84;;;9.80;100.00
6150;BME280;3106;42.670;23.318;2024-02-26T03:39:54;93910.53;;;9.76;100.00
6150;BME280;3106;42.670;23.318;2024-02-26T03:42:22;93912.34;;;9.72;100.00
6150;BME280;3106;42.670;23.318;2024-02-26T03:44:49;93913.66;;;9.62;100.00
6150;BME280;3106;42.670;23.318;2024-02-26T03:47:18;93918.31;;;9.65;100.00
6150;BME280;3106;42.670;23.318;2024-02-26T03:49:44;93900.16;;;9.55;100.00
6150;BME280;3106;42.670;23.318;2024-02-26T03:52:15;93904.66;;;9.51;100.00
6150;BME280;3106;42.670;23.318;2024-02-26T03:54:57;93904.41;;;9.41;100.00
6150;BME280;3106;42.670;23.318;2024-02-26T03:57:25;93913.91;;;9.38;100.00
6150;BME280;3106;42.670;23.318;2024-02-26T03:59:57;93900.72;;;9.45;100.00
6150;BME280;3106;42.670;23.318;2024-02-26T04:02:26;93909.56;;;9.49;100.00
6150;BME280;3106;42.670;23.318;2024-02-26T04:04:53;93906.47;;;9.47;100.00
6150;BME280;3106;42.670;23.318;2024-02-26T04:07:21;93894.34;;;9.50;100.00
6150;BME280;3106;42.670;23.318;2024-02-26T04:09:48;93860.38;;;9.31;100.00
6150;BME280;3106;42.670;23.318;2024-02-26T04:12:15;93895.09;;;9.50;100.00
6150;BME280;3106;42.670;23.318;2024-02-26T04:14:42;93902.00;;;9.51;100.00
6150;BME280;3106;42.670;23.318;2024-02-26T04:17:26;93888.75;;;9.55;100.00
6150;BME280;3106;42.670;23.318;2024-02-26T04:19:53;93857.50;;;9.40;100.00
6150;BME280;3106;42.670;23.318;2024-02-26T04:22:20;93888.38;;;9.56;100.00
6150;BME280;3106;42.670;23.318;2024-02-26T04:24:47;93886.06;;;9.55;100.00
6150;BME280;3106;42.670;23.318;2024-02-26T04:27:14;93892.97;;;9.56;100.00
6150;BME280;3106;42.670;23.318;2024-02-26T04:29:41;93867.91;;;9.45;100.00
6150;BME280;3106;42.670;23.318;2024-02-26T04:32:08;93881.91;;;9.57;100.00
6150;BME280;3106;42.670;23.318;2024-02-26T04:34:37;93886.84;;;9.55;100.00
6150;BME280;3106;42.670;23.318;2024-02-26T04:37:04;93890.72;;;9.58;100.00
6150;BME280;3106;42.670;23.318;2024-02-26T04:39:31;93899.91;;;9.60;100.00
6150;BME280;3106;42.670;23.318;2024-02-26T04:42:00;93892.69;;;9.61;100.00
6150;BME280;3106;42.670;23.318;2024-02-26T04:44:30;93894.84;;;9.55;100.00
6150;BME280;3106;42.670;23.318;2024-02-26T04:46:59;93887.38;;;9.45;100.00
6150;BME280;3106;42.670;23.318;2024-02-26T04:49:28;93892.00;;;9.48;100.00
6150;BME280;3106;42.670;23.318;2024-02-26T04:51:56;93879.91;;;9.35;100.00
6150;BME280;3106;42.670;23.318;2024-02-26T04:54:25;93883.69;;;9.34;100.00
6150;BME280;3106;42.670;23.318;2024-02-26T04:56:55;93898.59;;;9.35;100.00
6150;BME280;3106;42.670;23.318;2024-02-26T04:59:22;93859.38;;;9.05;100.00
6150;BME280;3106;42.670;23.318;2024-02-26T05:01:51;93879.84;;;9.16;100.00
6150;BME280;3106;42.670;23.318;2024-02-26T05:04:18;93855.34;;;8.96;100.00
6150;BME280;3106;42.670;23.318;2024-02-26T05:06:46;93908.91;;;9.21;100.00
6150;BME280;3106;42.670;23.318;2024-02-26T05:09:15;93912.34;;;9.22;100.00
6150;BME280;3106;42.670;23.318;2024-02-26T05:11:42;93917.25;;;9.20;100.00
6150;BME280;3106;42.670;23.318;2024-02-26T05:14:10;93922.34;;;9.25;100.00
6150;BME280;3106;42.670;23.318;2024-02-26T05:16:38;93915.88;;;9.26;100.00
6150;BME280;3106;42.670;23.318;2024-02-26T05:19:04;93934.63;;;9.29;100.00
6150;BME280;3106;42.670;23.318;2024-02-26T05:21:32;93933.25;;;9.35;100.00
6150;BME280;3106;42.670;23.318;2024-02-26T05:23:59;93923.28;;;9.32;100.00
6150;BME280;3106;42.670;23.318;2024-02-26T05:26:30;93936.84;;;9.27;100.00
6150;BME280;3106;42.670;23.318;2024-02-26T05:28:59;93932.91;;;9.37;100.00
6150;BME280;3106;42.670;23.318;2024-02-26T05:31:27;93940.47;;;9.35;100.00
6150;BME280;3106;42.670;23.318;2024-02-26T05:33:54;93912.63;;;9.17;100.00
6150;BME280;3106;42.670;23.318;2024-02-26T05:36:22;93917.09;;;9.13;100.00
6150;BME280;3106;42.670;23.318;2024-02-26T05:38:54;93957.28;;;9.35;100.00
6150;BME280;3106;42.670;23.318;2024-02-26T05:41:20;93952.78;;;9.39;100.00
6150;BME280;3106;42.670;23.318;2024-02-26T05:43:54;93945.97;;;9.26;100.00
6150;BME280;3106;42.670;23.318;2024-02-26T05:46:22;93961.66;;;9.43;100.00
6150;BME280;3106;42.670;23.318;2024-02-26T05:48:50;93929.28;;;9.29;100.00
6150;BME280;3106;42.670;23.318;2024-02-26T05:51:18;93962.59;;;9.51;100.00
6150;BME280;3106;42.670;23.318;2024-02-26T05:53:44;93955.78;;;9.53;100.00
6150;BME280;3106;42.670;23.318;2024-02-26T05:56:12;93957.84;;;9.60;100.00
6150;BME280;3106;42.670;23.318;2024-02-26T05:58:40;93959.91;;;9.66;100.00
6150;BME280;3106;42.670;23.318;2024-02-26T06:01:09;93958.09;;;9.70;100.00
6150;BME280;3106;42.670;23.318;2024-02-26T06:03:39;93955.06;;;9.72;100.00
6150;BME280;3106;42.670;23.318;2024-02-26T06:06:10;93935.72;;;9.59;100.00
6150;BME280;3106;42.670;23.318;2024-02-26T06:08:38;93965.56;;;9.80;100.00
6150;BME280;3106;42.670;23.318;2024-02-26T06:11:06;93975.44;;;9.80;100.00
6150;BME280;3106;42.670;23.318;2024-02-26T06:13:36;93972.09;;;9.83;100.00
6150;BME280;3106;42.670;23.318;2024-02-26T06:16:03;93976.81;;;9.89;100.00
6150;BME280;3106;42.670;23.318;2024-02-26T06:18:32;93952.91;;;9.77;100.00
6150;BME280;3106;42.670;23.318;2024-02-26T06:20:59;93980.19;;;10.02;100.00
6150;BME280;3106;42.670;23.318;2024-02-26T06:23:26;93978.78;;;10.08;100.00
6150;BME280;3106;42.670;23.318;2024-02-26T06:25:54;93975.69;;;10.06;100.00
6150;BME280;3106;42.670;23.318;2024-02-26T06:28:20;93973.44;;;10.08;100.00
6150;BME280;3106;42.670;23.318;2024-02-26T06:30:48;93971.56;;;10.08;100.00
6150;BME280;3106;42.670;23.318;2024-02-26T06:33:17;93972.00;;;10.10;100.00
6150;BME280;3106;42.670;23.318;2024-02-26T06:35:47;93962.91;;;9.99;100.00
6150;BME280;3106;42.670;23.318;2024-02-26T06:38:16;93970.91;;;10.15;100.00
6150;BME280;3106;42.670;23.318;2024-02-26T06:40:44;93972.47;;;10.16;100.00
6150;BME280;3106;42.670;23.318;2024-02-26T06:43:11;93954.50;;;9.97;100.00
6150;BME280;3106;42.670;23.318;2024-02-26T06:45:39;93983.53;;;10.14;100.00
6150;BME280;3106;42.670;23.318;2024-02-26T06:48:07;93966.94;;;10.05;100.00
6150;BME280;3106;42.670;23.318;2024-02-26T06:50:35;93972.00;;;10.10;100.00
6150;BME280;3106;42.670;23.318;2024-02-26T06:53:03;93977.38;;;10.14;100.00
6150;BME280;3106;42.670;23.318;2024-02-26T06:55:32;93979.78;;;10.19;100.00
6150;BME280;3106;42.670;23.318;2024-02-26T06:58:02;93969.47;;;10.17;100.00
6150;BME280;3106;42.670;23.318;2024-02-26T07:00:29;93969.56;;;10.21;100.00
6150;BME280;3106;42.670;23.318;2024-02-26T07:02:58;93961.03;;;10.15;100.00
6150;BME280;3106;42.670;23.318;2024-02-26T07:05:27;93967.91;;;10.16;100.00
6150;BME280;3106;42.670;23.318;2024-02-26T07:07:58;93983.47;;;10.30;100.00
6150;BME280;3106;42.670;23.318;2024-02-26T07:10:29;93972.97;;;10.21;100.00
6150;BME280;3106;42.670;23.318;2024-02-26T07:12:56;93965.16;;;10.13;100.00
6150;BME280;3106;42.670;23.318;2024-02-26T07:15:23;93964.41;;;10.12;100.00
6150;BME280;3106;42.670;23.318;2024-02-26T07:17:50;93988.81;;;10.30;100.00
6150;BME280;3106;42.670;23.318;2024-02-26T07:20:17;93978.31;;;10.21;100.00
6150;BME280;3106;42.670;23.318;2024-02-26T07:22:44;93984.59;;;10.29;100.00
6150;BME280;3106;42.670;23.318;2024-02-26T07:25:11;93993.59;;;10.40;100.00
6150;BME280;3106;42.670;23.318;2024-02-26T07:27:40;93996.28;;;10.40;100.00
6150;BME280;3106;42.670;23.318;2024-02-26T07:30:07;93987.63;;;10.46;100.00
6150;BME280;3106;42.670;23.318;2024-02-26T07:32:34;93978.22;;;10.52;100.00
6150;BME280;3106;42.670;23.318;2024-02-26T07:35:01;93986.72;;;10.57;100.00
6150;BME280;3106;42.670;23.318;2024-02-26T07:37:30;93975.44;;;10.48;100.00
6150;BME280;3106;42.670;23.318;2024-02-26T07:39:57;93996.84;;;10.67;100.00
6150;BME280;3106;42.670;23.318;2024-02-26T07:42:24;93990.31;;;10.84;100.00
6150;BME280;3106;42.670;23.318;2024-02-26T07:44:52;93978.94;;;10.90;100.00
6150;BME280;3106;42.670;23.318;2024-02-26T07:47:19;93986.88;;;11.06;100.00
6150;BME280;3106;42.670;23.318;2024-02-26T07:49:47;93983.63;;;11.16;100.00
6150;BME280;3106;42.670;23.318;2024-02-26T07:52:14;93997.97;;;11.27;99.70
6150;BME280;3106;42.670;23.318;2024-02-26T07:54:40;93988.22;;;11.38;99.45
6150;BME280;3106;42.670;23.318;2024-02-26T07:57:07;93993.81;;;11.52;98.68
6150;BME280;3106;42.670;23.318;2024-02-26T07:59:34;93988.72;;;11.66;98.63
6150;BME280;3106;42.670;23.318;2024-02-26T08:02:02;93991.19;;;11.78;97.20
6150;BME280;3106;42.670;23.318;2024-02-26T08:04:30;93976.25;;;11.77;96.26
6150;BME280;3106;42.670;23.318;2024-02-26T08:06:56;93939.69;;;11.62;95.33
6150;BME280;3106;42.670;23.318;2024-02-26T08:09:23;93966.34;;;11.77;94.87
6150;BME280;3106;42.670;23.318;2024-02-26T08:11:50;93978.38;;;11.90;94.15
6150;BME280;3106;42.670;23.318;2024-02-26T08:14:18;93982.59;;;11.91;94.15
6150;BME280;3106;42.670;23.318;2024-02-26T08:16:45;93981.16;;;11.97;94.17
6150;BME280;3106;42.670;23.318;2024-02-26T08:19:13;93979.69;;;12.00;93.99
6150;BME280;3106;42.670;23.318;2024-02-26T08:21:41;93979.38;;;12.04;93.85
6150;BME280;3106;42.670;23.318;2024-02-26T08:24:08;93978.31;;;12.12;93.18
6150;BME280;3106;42.670;23.318;2024-02-26T08:26:37;93957.63;;;12.09;91.92
6150;BME280;3106;42.670;23.318;2024-02-26T08:29:04;93974.44;;;12.36;91.99
6150;BME280;3106;42.670;23.318;2024-02-26T08:31:31;93974.50;;;12.39;90.59
6150;BME280;3106;42.670;23.318;2024-02-26T08:34:02;93976.91;;;12.48;89.17
6150;BME280;3106;42.670;23.318;2024-02-26T08:36:33;93973.53;;;12.54;88.40
6150;BME280;3106;42.670;23.318;2024-02-26T08:39:00;93977.06;;;12.58;87.87
6150;BME280;3106;42.670;23.318;2024-02-26T08:41:27;93975.25;;;12.69;88.21
6150;BME280;3106;42.670;23.318;2024-02-26T08:43:55;93972.97;;;12.71;87.04
6150;BME280;3106;42.670;23.318;2024-02-26T08:46:23;93977.28;;;12.79;86.90
6150;BME280;3106;42.670;23.318;2024-02-26T08:48:50;93966.16;;;12.77;86.96
6150;BME280;3106;42.670;23.318;2024-02-26T08:51:17;93978.97;;;12.91;86.60
6150;BME280;3106;42.670;23.318;2024-02-26T08:53:46;93978.25;;;12.94;85.73
6150;BME280;3106;42.670;23.318;2024-02-26T08:56:13;93964.75;;;12.90;85.58
6150;BME280;3106;42.670;23.318;2024-02-26T08:58:42;93969.66;;;13.14;85.87
6150;BME280;3106;42.670;23.318;2024-02-26T09:01:09;93977.53;;;13.33;86.12
6150;BME280;3106;42.670;23.318;2024-02-26T09:03:36;93970.69;;;13.43;84.78
6150;BME280;3106;42.670;23.318;2024-02-26T09:06:03;93961.78;;;13.32;83.93
6150;BME280;3106;42.670;23.318;2024-02-26T09:08:32;93969.94;;;13.42;84.07
6150;BME280;3106;42.670;23.318;2024-02-26T09:11:02;93962.56;;;13.36;84.40
6150;BME280;3106;42.670;23.318;2024-02-26T09:13:31;93965.31;;;13.39;83.37
6150;BME280;3106;42.670;23.318;2024-02-26T09:15:58;93972.63;;;13.42;84.11
6150;BME280;3106;42.670;23.318;2024-02-26T09:18:26;93973.41;;;13.46;83.32
6150;BME280;3106;42.670;23.318;2024-02-26T09:20:54;93965.31;;;13.39;83.54
6150;BME280;3106;42.670;23.318;2024-02-26T09:23:24;93961.03;;;13.35;83.58
6150;BME280;3106;42.670;23.318;2024-02-26T09:26:10;93943.09;;;13.42;82.91
6150;BME280;3106;42.670;23.318;2024-02-26T09:28:37;93957.81;;;13.62;82.67
6150;BME280;3106;42.670;23.318;2024-02-26T09:31:04;93960.16;;;13.63;83.63
6150;BME280;3106;42.670;23.318;2024-02-26T09:33:31;93949.00;;;13.61;83.34
6150;BME280;3106;42.670;23.318;2024-02-26T09:35:58;93957.50;;;13.70;82.58
6150;BME280;3106;42.670;23.318;2024-02-26T09:38:26;93959.09;;;13.75;82.33
6150;BME280;3106;42.670;23.318;2024-02-26T09:40:52;93952.63;;;13.83;82.31
6150;BME280;3106;42.670;23.318;2024-02-26T09:43:23;93954.59;;;13.93;80.53
6150;BME280;3106;42.670;23.318;2024-02-26T09:45:52;93943.94;;;14.03;78.54
6150;BME280;3106;42.670;23.318;2024-02-26T09:48:20;93955.91;;;14.13;78.13
6150;BME280;3106;42.670;23.318;2024-02-26T09:50:50;93952.50;;;14.16;77.43
6150;BME280;3106;42.670;23.318;2024-02-26T09:53:18;93926.22;;;13.99;76.59
6150;BME280;3106;42.670;23.318;2024-02-26T09:55:50;93938.91;;;14.02;76.71
6150;BME280;3106;42.670;23.318;2024-02-26T09:58:18;93933.22;;;14.10;76.58
6150;BME280;3106;42.670;23.318;2024-02-26T10:00:56;93903.56;;;13.96;75.94
6150;BME280;3106;42.670;23.318;2024-02-26T10:03:36;93930.31;;;14.36;75.39
6150;BME280;3106;42.670;23.318;2024-02-26T10:06:05;93937.25;;;14.37;74.67
6150;BME280;3106;42.670;23.318;2024-02-26T10:08:34;93944.47;;;14.23;74.83
6150;BME280;3106;42.670;23.318;2024-02-26T10:11:03;93903.56;;;14.00;74.98
6150;BME280;3106;42.670;23.318;2024-02-26T10:13:31;93930.28;;;14.33;74.70
6150;BME280;3106;42.670;23.318;2024-02-26T10:16:00;93927.22;;;14.31;74.48
6150;BME280;3106;42.670;23.318;2024-02-26T10:18:47;93921.06;;;14.27;73.98
6150;BME280;3106;42.670;23.318;2024-02-26T10:21:17;93931.41;;;14.25;74.04
6150;BME280;3106;42.670;23.318;2024-02-26T10:23:47;93923.38;;;14.28;73.31
6150;BME280;3106;42.670;23.318;2024-02-26T10:26:15;93919.53;;;14.33;73.04
6150;BME280;3106;42.670;23.318;2024-02-26T10:28:45;93908.75;;;14.26;72.27
6150;BME280;3106;42.670;23.318;2024-02-26T10:31:15;93908.41;;;14.34;71.66
6150;BME280;3106;42.670;23.318;2024-02-26T10:33:43;93892.63;;;14.26;72.35
6150;BME280;3106;42.670;23.318;2024-02-26T10:36:10;93896.56;;;14.49;71.54
6150;BME280;3106;42.670;23.318;2024-02-26T10:38:37;93888.88;;;14.44;71.40
6150;BME280;3106;42.670;23.318;2024-02-26T10:41:06;93883.13;;;14.46;69.98
6150;BME280;3106;42.670;23.318;2024-02-26T10:43:34;93795.25;;;13.82;69.71
6150;BME280;3106;42.670;23.318;2024-02-26T10:46:01;93888.88;;;14.48;69.15
6150;BME280;3106;42.670;23.318;2024-02-26T10:48:31;93900.06;;;14.57;68.61
6150;BME280;3106;42.670;23.318;2024-02-26T10:50:59;93898.94;;;14.61;68.10
6150;BME280;3106;42.670;23.318;2024-02-26T10:53:29;93894.69;;;14.57;68.51
6150;BME280;3106;42.670;23.318;2024-02-26T10:56:01;93895.03;;;14.55;69.01
6150;BME280;3106;42.670;23.318;2024-02-26T10:58:31;93897.41;;;14.67;68.28
6150;BME280;3106;42.670;23.318;2024-02-26T11:01:01;93878.56;;;14.60;67.38
6150;BME280;3106;42.670;23.318;2024-02-26T11:03:33;93885.06;;;14.56;67.85
6150;BME280;3106;42.670;23.318;2024-02-26T11:06:04;93878.53;;;14.57;67.79
6150;BME280;3106;42.670;23.318;2024-02-26T11:08:33;93882.44;;;14.80;67.56
6150;BME280;3106;42.670;23.318;2024-02-26T11:11:01;93893.63;;;14.89;66.70
6150;BME280;3106;42.670;23.318;2024-02-26T11:13:30;93880.56;;;14.95;66.32
6150;BME280;3106;42.670;23.318;2024-02-26T11:15:58;93877.13;;;15.05;66.23
6150;BME280;3106;42.670;23.318;2024-02-26T11:18:27;93872.13;;;15.07;66.19
6150;BME280;3106;42.670;23.318;2024-02-26T11:20:56;93891.34;;;15.05;65.01
6150;BME280;3106;42.670;23.318;2024-02-26T11:23:25;93870.16;;;14.86;64.85
6150;BME280;3106;42.670;23.318;2024-02-26T11:25:54;93887.47;;;14.89;64.65
6150;BME280;3106;42.670;23.318;2024-02-26T11:28:23;93877.06;;;14.87;64.46
6150;BME280;3106;42.670;23.318;2024-02-26T11:30:51;93870.56;;;14.85;64.76
6150;BME280;3106;42.670;23.318;2024-02-26T11:33:19;93885.94;;;14.95;64.96
6150;BME280;3106;42.670;23.318;2024-02-26T11:35:46;93863.63;;;14.84;63.96
6150;BME280;3106;42.670;23.318;2024-02-26T11:38:24;93871.31;;;14.85;64.65
6150;BME280;3106;42.670;23.318;2024-02-26T11:40:54;93869.75;;;14.74;64.92
6150;BME280;3106;42.670;23.318;2024-02-26T11:43:23;93872.03;;;14.72;65.18
6150;BME280;3106;42.670;23.318;2024-02-26T11:45:51;93846.69;;;14.69;64.81
6150;BME280;3106;42.670;23.318;2024-02-26T11:48:24;93857.47;;;14.87;64.19
6150;BME280;3106;42.670;23.318;2024-02-26T11:50:53;93860.94;;;14.87;63.99
6150;BME280;3106;42.670;23.318;2024-02-26T11:53:45;93863.25;;;14.89;62.51
6150;BME280;3106;42.670;23.318;2024-02-26T11:56:20;93826.31;;;14.68;62.49
6150;BME280;3106;42.670;23.318;2024-02-26T11:59:03;93856.34;;;14.95;60.98
6150;BME280;3106;42.670;23.318;2024-02-26T12:01:45;93854.06;;;15.00;60.94
6150;BME280;3106;42.670;23.318;2024-02-26T12:04:18;93865.59;;;15.04;60.99
6150;BME280;3106;42.670;23.318;2024-02-26T12:06:48;93863.28;;;15.13;60.97
6150;BME280;3106;42.670;23.318;2024-02-26T12:09:33;93860.59;;;15.23;60.46
6150;BME280;3106;42.670;23.318;2024-02-26T12:12:05;93859.47;;;15.31;60.16
6150;BME280;3106;42.670;23.318;2024-02-26T12:14:34;93857.56;;;15.35;59.83
6150;BME280;3106;42.670;23.318;2024-02-26T12:17:03;93873.72;;;15.39;58.87
6150;BME280;3106;42.670;23.318;2024-02-26T12:19:32;93866.03;;;15.37;58.37
6150;BME280;3106;42.670;23.318;2024-02-26T12:22:01;93871.03;;;15.42;58.06
6150;BME280;3106;42.670;23.318;2024-02-26T12:24:27;93876.41;;;15.53;58.09
6150;BME280;3106;42.670;23.318;2024-02-26T12:26:56;93870.63;;;15.47;57.37
6150;BME280;3106;42.670;23.318;2024-02-26T12:29:25;93868.34;;;15.49;57.21
6150;BME280;3106;42.670;23.318;2024-02-26T12:31:52;93886.81;;;15.61;57.24
6150;BME280;3106;42.670;23.318;2024-02-26T12:34:21;93869.09;;;15.57;56.90
6150;BME280;3106;42.670;23.318;2024-02-26T12:37:21;93889.50;;;15.68;56.69
6150;BME280;3106;42.670;23.318;2024-02-26T12:39:49;93872.56;;;15.64;56.85
6150;BME280;3106;42.670;23.318;2024-02-26T12:42:19;93863.31;;;15.65;56.63
6150;BME280;3106;42.670;23.318;2024-02-26T12:44:46;93874.09;;;15.72;56.90
6150;BME280;3106;42.670;23.318;2024-02-26T12:47:14;93873.31;;;15.65;57.29
6150;BME280;3106;42.670;23.318;2024-02-26T12:49:50;93853.31;;;15.62;57.02
6150;BME280;3106;42.670;23.318;2024-02-26T12:52:17;93876.38;;;15.98;55.81
6150;BME280;3106;42.670;23.318;2024-02-26T12:54:44;93855.94;;;16.04;55.53
6150;BME280;3106;42.670;23.318;2024-02-26T12:57:12;93869.03;;;16.06;55.43
6150;BME280;3106;42.670;23.318;2024-02-26T13:05:46;93841.72;;;15.79;54.66
6150;BME280;3106;42.670;23.318;2024-02-26T13:08:17;93830.22;;;15.68;54.72
6150;BME280;3106;42.670;23.318;2024-02-26T13:10:46;93865.59;;;15.84;55.43
6150;BME280;3106;42.670;23.318;2024-02-26T13:13:15;93866.00;;;15.86;55.04
6150;BME280;3106;42.670;23.318;2024-02-26T13:15:43;93830.97;;;15.62;55.18
6150;BME280;3106;42.670;23.318;2024-02-26T13:18:14;93851.00;;;15.68;54.96
6150;BME280;3106;42.670;23.318;2024-02-26T13:20:41;93856.75;;;15.73;55.15
6150;BME280;3106;42.670;23.318;2024-02-26T13:23:11;93862.94;;;15.74;55.18